• Join FlightAware (Why Join?)
  • Login
  • US Flag 
12:43AM EDT


 

Airport Tracker/Info


-or-


 

Live Flight TrackerFlight Track Log ✈ CES568 ✈ 18-Nov-2013 ✈ WSSS / SIN - ZSPD / PVG

Flight Track Log - Related Links

Times and Time Zones

All times are in EST time to prevent confusion due to time zone crossing. See the CES568 flight status page for this flight to view local times or setup timezone preferences in your user account.

Time Position Orientation Groundspeed Altitude Reporting Facility
EST Latitude Longitude Course Direction KTS MPH feet Rate Location/Type
05:26AM 10.2366 108.7213 28° Northeast  Level Estimated
05:27AM 10.3487 108.7824 28° Northeast  Level Estimated
05:28AM 10.4608 108.8436 28° Northeast  Level Estimated
05:29AM 10.5729 108.9048 28° Northeast  Level Estimated
05:30AM 10.6849 108.9661 28° Northeast  Level Estimated
05:31AM 10.7970 109.0274 28° Northeast  Level Estimated
05:32AM 10.9090 109.0888 28° Northeast  Level Estimated
05:33AM 11.0211 109.1502 28° Northeast  Level Estimated
05:34AM 11.1331 109.2116 28° Northeast  Level Estimated
05:35AM 11.2451 109.2731 28° Northeast  Level Estimated
05:36AM 11.3570 109.3347 28° Northeast  Level Estimated
05:37AM 11.4690 109.3963 28° Northeast  Level Estimated
05:38AM 11.5810 109.4579 28° Northeast  Level Estimated
05:39AM 11.6929 109.5197 28° Northeast  Level Estimated
05:40AM 11.8049 109.5814 28° Northeast  Level Estimated
05:41AM 11.9168 109.6432 28° Northeast  Level Estimated
05:42AM 12.0287 109.7050 28° Northeast  Level Estimated
05:43AM 12.1406 109.7670 28° Northeast  Level Estimated
05:44AM 12.2525 109.8289 28° Northeast  Level Estimated
05:45AM 12.3643 109.8909 28° Northeast  Level Estimated
05:46AM 12.4762 109.9530 28° Northeast  Level Estimated
05:47AM 12.5880 110.0151 28° Northeast  Level Estimated
05:48AM 12.6998 110.0772 28° Northeast  Level Estimated
05:49AM 12.8117 110.1395 28° Northeast  Level Estimated
05:50AM 12.9235 110.2018 28° Northeast  Level Estimated
05:51AM 13.0352 110.2641 29° Northeast  Level Estimated
05:52AM 13.1470 110.3265 29° Northeast  Level Estimated
05:53AM 13.2587 110.3889 29° Northeast  Level Estimated
05:54AM 13.3705 110.4514 29° Northeast  Level Estimated
05:55AM 13.4822 110.5140 29° Northeast  Level Estimated
05:56AM 13.5939 110.5766 29° Northeast  Level Estimated
05:57AM 13.7056 110.6393 29° Northeast  Level Estimated
05:58AM 13.8173 110.7020 29° Northeast  Level Estimated
05:59AM 13.9289 110.7648 29° Northeast  Level Estimated
06:00AM 14.0406 110.8277 29° Northeast  Level Estimated
06:01AM 14.1522 110.8906 29° Northeast  Level Estimated
06:02AM 14.2638 110.9536 29° Northeast  Level Estimated
06:03AM 14.3754 111.0166 29° Northeast  Level Estimated
06:04AM 14.4870 111.0797 29° Northeast  Level Estimated
06:05AM 14.5985 111.1429 29° Northeast  Level Estimated
06:06AM 14.7101 111.2061 29° Northeast  Level Estimated
06:07AM 14.8216 111.2694 29° Northeast  Level Estimated
06:08AM 14.9331 111.3328 29° Northeast  Level Estimated
06:09AM 15.0446 111.3962 29° Northeast  Level Estimated
06:10AM 15.1561 111.4597 29° Northeast  Level Estimated
06:11AM 15.2675 111.5233 29° Northeast  Level Estimated
06:12AM 15.3790 111.5869 29° Northeast  Level Estimated
06:13AM 15.4904 111.6506 29° Northeast  Level Estimated
06:14AM 15.6018 111.7144 29° Northeast  Level Estimated
06:15AM 15.7132 111.7782 29° Northeast  Level Estimated
06:16AM 15.8245 111.8421 29° Northeast  Level Estimated
06:17AM 15.9359 111.9061 29° Northeast  Level Estimated
06:18AM 16.0472 111.9702 29° Northeast  Level Estimated
06:19AM 16.1585 112.0343 29° Northeast  Level Estimated
06:20AM 16.2698 112.0985 29° Northeast  Level Estimated
06:21AM 16.3811 112.1627 29° Northeast  Level Estimated
06:22AM 16.4923 112.2271 29° Northeast  Level Estimated
06:23AM 16.6035 112.2915 29° Northeast  Level Estimated
06:24AM 16.7147 112.3560 29° Northeast  Level Estimated
06:25AM 16.8259 112.4205 29° Northeast  Level Estimated
06:26AM 16.9371 112.4852 29° Northeast  Level Estimated
06:27AM 17.0483 112.5499 29° Northeast  Level Estimated
06:28AM 17.1594 112.6147 29° Northeast  Level Estimated
06:29AM 17.2705 112.6795 29° Northeast  Level Estimated
06:30AM 17.3816 112.7445 29° Northeast  Level Estimated
06:31AM 17.4926 112.8095 29° Northeast  Level Estimated
06:32AM 17.6037 112.8746 29° Northeast  Level Estimated
06:33AM 17.7147 112.9398 29° Northeast  Level Estimated
06:34AM 17.8257 113.0051 29° Northeast  Level Estimated
06:35AM 17.9367 113.0704 29° Northeast  Level Estimated
06:36AM 18.0476 113.1359 29° Northeast  Level Estimated
06:37AM 18.1586 113.2014 29° Northeast  Level Estimated
06:38AM 18.2695 113.2670 29° Northeast  Level Estimated
06:39AM 18.3804 113.3327 29° Northeast  Level Estimated
06:40AM 18.4912 113.3984 29° Northeast  Level Estimated
06:41AM 18.6021 113.4643 29° Northeast  Level Estimated
06:42AM 18.7129 113.5302 29° Northeast  Level Estimated
06:43AM 18.8237 113.5962 29° Northeast  Level Estimated
06:44AM 18.9345 113.6623 29° Northeast  Level Estimated
06:45AM 19.0452 113.7285 29° Northeast  Level Estimated
06:46AM 19.1560 113.7948 29° Northeast  Level Estimated
06:47AM 19.2667 113.8612 30° Northeast  Level Estimated
06:48AM 19.3774 113.9277 30° Northeast  Level Estimated
06:49AM 19.4880 113.9942 30° Northeast  Level Estimated
06:50AM 19.5987 114.0609 30° Northeast  Level Estimated
06:51AM 19.7093 114.1276 30° Northeast  Level Estimated
06:52AM 19.8199 114.1944 30° Northeast  Level Estimated
06:53AM 19.9304 114.2613 30° Northeast  Level Estimated
06:54AM 20.0409 114.3284 30° Northeast  Level Estimated
06:55AM 20.1514 114.3955 30° Northeast  Level Estimated
06:56AM 20.2619 114.4627 30° Northeast  Level Estimated
06:57AM 20.3724 114.5300 30° Northeast  Level Estimated
06:58AM 20.4828 114.5974 30° Northeast  Level Estimated
06:59AM 20.5932 114.6649 30° Northeast  Level Estimated
07:00AM 20.7036 114.7325 30° Northeast  Level Estimated
07:01AM 20.8140 114.8001 30° Northeast  Level Estimated
07:02AM 20.9243 114.8679 30° Northeast  Level Estimated
07:03AM 21.0346 114.9358 30° Northeast  Level Estimated
07:04AM 21.1449 115.0038 30° Northeast  Level Estimated
07:05AM 21.2551 115.0719 30° Northeast  Level Estimated
07:06AM 21.3653 115.1401 30° Northeast  Level Estimated
07:07AM 21.4755 115.2084 30° Northeast  Level Estimated
07:08AM 21.5857 115.2768 30° Northeast  Level Estimated
07:09AM 21.6958 115.3453 30° Northeast  Level Estimated
07:10AM 21.8059 115.4139 30° Northeast  Level Estimated
07:11AM 21.9160 115.4826 30° Northeast  Level Estimated
07:12AM 22.0260 115.5514 30° Northeast  Level Estimated
07:13AM 22.1361 115.6204 30° Northeast  Level Estimated
07:14AM 22.2460 115.6894 30° Northeast  Level Estimated
07:15AM 22.3560 115.7586 30° Northeast  Level Estimated
07:16AM 22.4659 115.8278 30° Northeast  Level Estimated
07:17AM 22.5758 115.8972 30° Northeast  Level Estimated
07:18AM 22.6857 115.9666 30° Northeast  Level Estimated
07:19AM 22.7955 116.0362 30° Northeast  Level Estimated
07:20AM 22.9054 116.1059 30° Northeast  Level Estimated
07:21AM 23.0151 116.1757 30° Northeast  Level Estimated
07:22AM 23.1249 116.2457 30° Northeast  Level Estimated
07:23AM 23.2346 116.3157 30° Northeast  Level Estimated
07:24AM 23.3443 116.3858 30° Northeast  Level Estimated
07:25AM 23.4540 116.4561 30° Northeast  Level Estimated
07:26AM 23.5636 116.5265 30° Northeast  Level Estimated
07:27AM 23.6732 116.5970 31° Northeast  Level Estimated
07:28AM 23.7827 116.6676 31° Northeast  Level Estimated
07:29AM 23.8923 116.7384 31° Northeast  Level Estimated
07:30AM 24.0018 116.8092 31° Northeast  Level Estimated
07:31AM 24.1112 116.8802 31° Northeast  Level Estimated
07:32AM 24.2207 116.9513 31° Northeast  Level Estimated
07:33AM 24.3301 117.0225 31° Northeast  Level Estimated
07:34AM 24.4394 117.0939 31° Northeast  Level Estimated
07:35AM 24.5488 117.1654 31° Northeast  Level Estimated
07:36AM 24.6581 117.2370 31° Northeast  Level Estimated
07:37AM 24.7673 117.3087 31° Northeast  Level Estimated
07:38AM 24.8766 117.3805 31° Northeast  Level Estimated
07:39AM 24.9858 117.4525 31° Northeast  Level Estimated
07:40AM 25.0949 117.5246 31° Northeast  Level Estimated
07:41AM 25.2041 117.5968 31° Northeast  Level Estimated
07:42AM 25.3132 117.6692 31° Northeast  Level Estimated
07:43AM 25.4222 117.7417 31° Northeast  Level Estimated
07:44AM 25.5312 117.8143 31° Northeast  Level Estimated
07:45AM 25.6402 117.8871 31° Northeast  Level Estimated
07:46AM 25.7492 117.9600 31° Northeast  Level Estimated
07:47AM 25.8581 118.0330 31° Northeast  Level Estimated
07:48AM 25.9670 118.1061 31° Northeast  Level Estimated
07:49AM 26.0758 118.1794 31° Northeast  Level Estimated
07:50AM 26.1846 118.2529 31° Northeast  Level Estimated
07:51AM 26.2934 118.3264 31° Northeast  Level Estimated
07:52AM 26.4021 118.4001 31° Northeast  Level Estimated
07:53AM 26.5108 118.4740 31° Northeast  Level Estimated
07:54AM 26.6194 118.5480 31° Northeast  Level Estimated
07:55AM 26.7281 118.6221 31° Northeast  Level Estimated
07:56AM 26.8366 118.6964 31° Northeast  Level Estimated
07:57AM 26.9452 118.7708 31° Northeast  Level Estimated
07:58AM 27.0537 118.8453 31° Northeast  Level Estimated
07:59AM 27.1621 118.9200 31° Northeast  Level Estimated
08:00AM 27.2705 118.9949 32° Northeast  Level Estimated
08:01AM 27.3789 119.0698 32° Northeast  Level Estimated
08:02AM 27.4873 119.1450 32° Northeast  Level Estimated
08:03AM 27.5956 119.2203 32° Northeast  Level Estimated
08:04AM 27.7038 119.2957 32° Northeast  Level Estimated
08:05AM 27.8120 119.3713 32° Northeast  Level Estimated
08:06AM 27.9202 119.4470 32° Northeast  Level Estimated
08:07AM 28.0283 119.5229 32° Northeast  Level Estimated
08:08AM 28.1364 119.5989 32° Northeast  Level Estimated
08:09AM 28.2445 119.6751 32° Northeast  Level Estimated
08:10AM 28.3525 119.7515 32° Northeast  Level Estimated
08:11AM 28.4604 119.8280 32° Northeast  Level Estimated
08:12AM 28.5684 119.9046 32° Northeast  Level Estimated
08:13AM 28.6763 119.9815 32° Northeast  Level Estimated
08:14AM 28.7841 120.0584 32° Northeast  Level Estimated
08:15AM 28.8919 120.1356 32° Northeast  Level Estimated
08:16AM 28.9996 120.2128 32° Northeast  Level Estimated
08:17AM 29.1073 120.2903 32° Northeast  Level Estimated
08:18AM 29.2150 120.3679 32° Northeast  Level Estimated
08:19AM 29.3226 120.4457 32° Northeast  Level Estimated
08:20AM 29.4302 120.5236 32° Northeast  Level Estimated
08:21AM 29.5377 120.6017 32° Northeast  Level Estimated
08:22AM 29.6452 120.6800 32° Northeast  Level Estimated
08:23AM 29.7526 120.7585 32° Northeast  Level Estimated
08:24AM 29.8600 120.8371 32° Northeast  Level Estimated
08:25AM 29.9673 120.9158 32° Northeast  Level Estimated
08:26AM 30.0746 120.9948 32° Northeast  Level Estimated
08:27AM 30.1818 121.0739 33° Northeast  Level Estimated
08:28AM 30.2890 121.1532 33° Northeast  Level Estimated
08:29AM 30.3962 121.2327 33° Northeast  Level Estimated
08:30AM 30.5033 121.3123 33° Northeast  Level Estimated
08:31AM 30.6103 121.3922 33° Northeast  Level Estimated
08:32AM 30.7173 121.4722 33° Northeast  Level Estimated
08:33AM 30.8243 121.5523 33° Northeast  Level Estimated
08:34AM 30.9312 121.6327 33° Northeast  Level Estimated
08:35AM 31.0380 121.7132 33° Northeast  Level Estimated
08:36AM 31.1428 121.7924 33° Northeast  Level Estimated
08:37AM 31.1428 121.7924 221° Southwest  Level Estimated
08:38AM 31.1428 121.7924 221° Southwest  Level Estimated
08:39AM 31.1428 121.7924 221° Southwest  Level Estimated
08:40AM 31.1428 121.7924 221° Southwest  Level Estimated
08:41AM 31.1428 121.7924 221° Southwest  Level Estimated
08:42AM 31.1428 121.7924 221° Southwest  Level Estimated
08:43AM 31.1428 121.7924 221° Southwest  Level Estimated
08:44AM 31.1428 121.7924 221° Southwest  Level Estimated
08:45AM 31.1428 121.7924 221° Southwest  Level Estimated
08:46AM 31.1428 121.7924 221° Southwest  Level Estimated
08:47AM 31.1428 121.7924 221° Southwest  Level Estimated
08:48AM 31.1428 121.7924 221° Southwest  Level Estimated
08:49AM 31.1428 121.7924 221° Southwest  Level Estimated
08:50AM 31.1428 121.7924 221° Southwest  Level Estimated
08:51AM 31.1428 121.7924 221° Southwest  Level Estimated
08:52AM 31.1428 121.7924 221° Southwest  Level Estimated